sensor_id;sensor_type;location;lat;lon;timestamp;P1;durP1;ratioP1;P2;durP2;ratioP2
47635;SDS011;33364;50.766;15.338;2024-03-02T00:01:04;19.75;;;12.85;;
47635;SDS011;33364;50.766;15.338;2024-03-02T00:03:44;19.75;;;12.98;;
47635;SDS011;33364;50.766;15.338;2024-03-02T00:06:10;20.48;;;14.50;;
47635;SDS011;33364;50.766;15.338;2024-03-02T00:08:36;23.35;;;14.65;;
47635;SDS011;33364;50.766;15.338;2024-03-02T00:11:01;20.23;;;13.95;;
47635;SDS011;33364;50.766;15.338;2024-03-02T00:13:30;20.75;;;14.32;;
47635;SDS011;33364;50.766;15.338;2024-03-02T00:15:57;20.33;;;13.68;;
47635;SDS011;33364;50.766;15.338;2024-03-02T00:18:30;18.65;;;14.23;;
47635;SDS011;33364;50.766;15.338;2024-03-02T00:20:57;17.67;;;12.52;;
47635;SDS011;33364;50.766;15.338;2024-03-02T00:23:24;19.20;;;13.90;;
47635;SDS011;33364;50.766;15.338;2024-03-02T00:25:54;22.83;;;15.23;;
47635;SDS011;33364;50.766;15.338;2024-03-02T00:28:27;28.17;;;18.35;;
47635;SDS011;33364;50.766;15.338;2024-03-02T00:33:30;33.20;;;20.92;;
47635;SDS011;33364;50.766;15.338;2024-03-02T00:35:57;27.42;;;18.42;;
47635;SDS011;33364;50.766;15.338;2024-03-02T00:38:25;34.17;;;21.08;;
47635;SDS011;33364;50.766;15.338;2024-03-02T00:40:52;34.70;;;21.50;;
47635;SDS011;33364;50.766;15.338;2024-03-02T00:46:00;40.63;;;22.70;;
47635;SDS011;33364;50.766;15.338;2024-03-02T00:48:26;37.00;;;22.98;;
47635;SDS011;33364;50.766;15.338;2024-03-02T00:50:52;47.15;;;27.50;;
47635;SDS011;33364;50.766;15.338;2024-03-02T00:53:18;46.03;;;26.85;;
47635;SDS011;33364;50.766;15.338;2024-03-02T00:55:49;53.05;;;29.45;;
47635;SDS011;33364;50.766;15.338;2024-03-02T00:58:16;57.17;;;30.58;;
47635;SDS011;33364;50.766;15.338;2024-03-02T01:00:42;58.50;;;32.92;;
47635;SDS011;33364;50.766;15.338;2024-03-02T01:03:08;64.15;;;33.28;;
47635;SDS011;33364;50.766;15.338;2024-03-02T01:05:34;66.53;;;34.25;;
47635;SDS011;33364;50.766;15.338;2024-03-02T01:08:00;65.25;;;34.95;;
47635;SDS011;33364;50.766;15.338;2024-03-02T01:10:26;72.65;;;35.30;;
47635;SDS011;33364;50.766;15.338;2024-03-02T01:12:51;81.20;;;42.10;;
47635;SDS011;33364;50.766;15.338;2024-03-02T01:15:17;76.75;;;38.95;;
47635;SDS011;33364;50.766;15.338;2024-03-02T01:17:43;76.32;;;38.35;;
47635;SDS011;33364;50.766;15.338;2024-03-02T01:20:09;90.72;;;43.28;;
47635;SDS011;33364;50.766;15.338;2024-03-02T01:22:35;89.30;;;44.00;;
47635;SDS011;33364;50.766;15.338;2024-03-02T01:25:01;82.18;;;40.28;;
47635;SDS011;33364;50.766;15.338;2024-03-02T01:27:27;81.88;;;40.95;;
47635;SDS011;33364;50.766;15.338;2024-03-02T01:29:53;76.07;;;39.25;;
47635;SDS011;33364;50.766;15.338;2024-03-02T01:32:20;86.05;;;41.85;;
47635;SDS011;33364;50.766;15.338;2024-03-02T01:34:45;85.00;;;42.17;;
47635;SDS011;33364;50.766;15.338;2024-03-02T01:37:11;75.35;;;40.33;;
47635;SDS011;33364;50.766;15.338;2024-03-02T01:39:37;80.72;;;40.75;;
47635;SDS011;33364;50.766;15.338;2024-03-02T01:42:03;83.95;;;42.78;;
47635;SDS011;33364;50.766;15.338;2024-03-02T01:44:29;88.07;;;41.50;;
47635;SDS011;33364;50.766;15.338;2024-03-02T01:46:54;79.82;;;40.75;;
47635;SDS011;33364;50.766;15.338;2024-03-02T01:49:20;89.90;;;43.33;;
47635;SDS011;33364;50.766;15.338;2024-03-02T01:51:46;87.47;;;43.88;;
47635;SDS011;33364;50.766;15.338;2024-03-02T01:54:11;82.50;;;40.97;;
47635;SDS011;33364;50.766;15.338;2024-03-02T01:56:37;88.20;;;42.97;;
47635;SDS011;33364;50.766;15.338;2024-03-02T01:59:03;89.03;;;44.10;;
47635;SDS011;33364;50.766;15.338;2024-03-02T02:01:29;83.88;;;42.08;;
47635;SDS011;33364;50.766;15.338;2024-03-02T02:03:55;89.85;;;45.30;;
47635;SDS011;33364;50.766;15.338;2024-03-02T02:06:21;90.65;;;42.55;;
47635;SDS011;33364;50.766;15.338;2024-03-02T02:08:47;87.13;;;42.08;;
47635;SDS011;33364;50.766;15.338;2024-03-02T02:11:16;85.78;;;42.65;;
47635;SDS011;33364;50.766;15.338;2024-03-02T02:13:42;79.45;;;39.78;;
47635;SDS011;33364;50.766;15.338;2024-03-02T02:16:07;79.30;;;41.22;;
47635;SDS011;33364;50.766;15.338;2024-03-02T02:18:34;78.70;;;41.35;;
47635;SDS011;33364;50.766;15.338;2024-03-02T02:21:01;81.68;;;42.45;;
47635;SDS011;33364;50.766;15.338;2024-03-02T02:23:27;81.93;;;41.88;;
47635;SDS011;33364;50.766;15.338;2024-03-02T02:25:53;69.13;;;38.30;;
47635;SDS011;33364;50.766;15.338;2024-03-02T02:28:18;75.35;;;39.67;;
47635;SDS011;33364;50.766;15.338;2024-03-02T02:30:44;72.32;;;37.35;;
47635;SDS011;33364;50.766;15.338;2024-03-02T02:33:10;71.05;;;37.13;;
47635;SDS011;33364;50.766;15.338;2024-03-02T02:35:36;73.20;;;38.67;;
47635;SDS011;33364;50.766;15.338;2024-03-02T02:38:01;69.97;;;36.40;;
47635;SDS011;33364;50.766;15.338;2024-03-02T02:40:28;71.07;;;36.03;;
47635;SDS011;33364;50.766;15.338;2024-03-02T02:42:57;66.35;;;35.58;;
47635;SDS011;33364;50.766;15.338;2024-03-02T02:45:24;61.70;;;36.17;;
47635;SDS011;33364;50.766;15.338;2024-03-02T02:47:50;63.03;;;34.80;;
47635;SDS011;33364;50.766;15.338;2024-03-02T02:50:16;65.20;;;35.90;;
47635;SDS011;33364;50.766;15.338;2024-03-02T02:52:42;66.05;;;35.85;;
47635;SDS011;33364;50.766;15.338;2024-03-02T02:55:12;67.97;;;36.67;;
47635;SDS011;33364;50.766;15.338;2024-03-02T02:57:39;69.97;;;35.75;;
47635;SDS011;33364;50.766;15.338;2024-03-02T03:00:08;68.32;;;36.78;;
47635;SDS011;33364;50.766;15.338;2024-03-02T03:02:36;66.88;;;36.47;;
47635;SDS011;33364;50.766;15.338;2024-03-02T03:05:03;64.28;;;35.75;;
47635;SDS011;33364;50.766;15.338;2024-03-02T03:07:29;65.88;;;35.75;;
47635;SDS011;33364;50.766;15.338;2024-03-02T03:09:55;68.68;;;36.53;;
47635;SDS011;33364;50.766;15.338;2024-03-02T03:12:21;61.72;;;34.42;;
47635;SDS011;33364;50.766;15.338;2024-03-02T03:14:46;65.80;;;35.00;;
47635;SDS011;33364;50.766;15.338;2024-03-02T03:17:12;64.53;;;35.03;;
47635;SDS011;33364;50.766;15.338;2024-03-02T03:19:38;58.35;;;34.63;;
47635;SDS011;33364;50.766;15.338;2024-03-02T03:22:04;65.68;;;34.85;;
47635;SDS011;33364;50.766;15.338;2024-03-02T03:24:33;54.53;;;32.78;;
47635;SDS011;33364;50.766;15.338;2024-03-02T03:26:59;61.28;;;32.50;;
47635;SDS011;33364;50.766;15.338;2024-03-02T03:29:24;55.70;;;32.38;;
47635;SDS011;33364;50.766;15.338;2024-03-02T03:31:50;55.47;;;31.25;;
47635;SDS011;33364;50.766;15.338;2024-03-02T03:34:16;55.72;;;30.80;;
47635;SDS011;33364;50.766;15.338;2024-03-02T03:36:42;50.10;;;29.85;;
47635;SDS011;33364;50.766;15.338;2024-03-02T03:39:08;53.20;;;30.50;;
47635;SDS011;33364;50.766;15.338;2024-03-02T03:41:34;59.75;;;33.17;;
47635;SDS011;33364;50.766;15.338;2024-03-02T03:44:00;55.17;;;30.67;;
47635;SDS011;33364;50.766;15.338;2024-03-02T03:46:26;58.63;;;31.77;;
47635;SDS011;33364;50.766;15.338;2024-03-02T03:48:51;51.00;;;30.92;;
47635;SDS011;33364;50.766;15.338;2024-03-02T03:51:17;50.40;;;28.85;;
47635;SDS011;33364;50.766;15.338;2024-03-02T03:53:42;52.97;;;29.90;;
47635;SDS011;33364;50.766;15.338;2024-03-02T03:56:08;51.55;;;29.90;;
47635;SDS011;33364;50.766;15.338;2024-03-02T03:58:34;56.97;;;31.00;;
47635;SDS011;33364;50.766;15.338;2024-03-02T04:01:00;53.17;;;29.85;;
47635;SDS011;33364;50.766;15.338;2024-03-02T04:03:25;61.20;;;31.10;;
47635;SDS011;33364;50.766;15.338;2024-03-02T04:05:51;50.05;;;28.92;;
47635;SDS011;33364;50.766;15.338;2024-03-02T04:08:17;62.25;;;31.23;;
47635;SDS011;33364;50.766;15.338;2024-03-02T04:10:43;53.60;;;29.73;;
47635;SDS011;33364;50.766;15.338;2024-03-02T04:13:08;50.55;;;29.33;;
47635;SDS011;33364;50.766;15.338;2024-03-02T04:15:38;57.90;;;30.38;;
47635;SDS011;33364;50.766;15.338;2024-03-02T04:18:03;55.10;;;31.00;;
47635;SDS011;33364;50.766;15.338;2024-03-02T04:20:29;53.10;;;29.00;;
47635;SDS011;33364;50.766;15.338;2024-03-02T04:22:55;51.00;;;30.02;;
47635;SDS011;33364;50.766;15.338;2024-03-02T04:25:21;51.72;;;30.60;;
47635;SDS011;33364;50.766;15.338;2024-03-02T04:27:46;50.92;;;28.63;;
47635;SDS011;33364;50.766;15.338;2024-03-02T04:30:12;54.88;;;30.05;;
47635;SDS011;33364;50.766;15.338;2024-03-02T04:32:38;50.65;;;29.42;;
47635;SDS011;33364;50.766;15.338;2024-03-02T04:35:04;50.60;;;29.77;;
47635;SDS011;33364;50.766;15.338;2024-03-02T04:37:33;48.40;;;27.75;;
47635;SDS011;33364;50.766;15.338;2024-03-02T04:40:00;57.97;;;28.48;;
47635;SDS011;33364;50.766;15.338;2024-03-02T04:42:25;57.15;;;28.20;;
47635;SDS011;33364;50.766;15.338;2024-03-02T04:44:51;54.17;;;27.05;;
47635;SDS011;33364;50.766;15.338;2024-03-02T04:47:17;48.97;;;27.25;;
47635;SDS011;33364;50.766;15.338;2024-03-02T04:49:43;49.22;;;27.35;;
47635;SDS011;33364;50.766;15.338;2024-03-02T04:52:08;45.63;;;24.83;;
47635;SDS011;33364;50.766;15.338;2024-03-02T04:54:35;46.03;;;27.15;;
47635;SDS011;33364;50.766;15.338;2024-03-02T04:57:23;49.75;;;28.08;;
47635;SDS011;33364;50.766;15.338;2024-03-02T04:59:49;53.35;;;29.27;;
47635;SDS011;33364;50.766;15.338;2024-03-02T05:02:14;47.78;;;27.08;;
47635;SDS011;33364;50.766;15.338;2024-03-02T05:04:40;44.75;;;26.17;;
47635;SDS011;33364;50.766;15.338;2024-03-02T05:07:07;47.15;;;27.38;;
47635;SDS011;33364;50.766;15.338;2024-03-02T05:09:33;55.05;;;28.98;;
47635;SDS011;33364;50.766;15.338;2024-03-02T05:11:58;50.80;;;28.33;;
47635;SDS011;33364;50.766;15.338;2024-03-02T05:15:01;45.40;;;26.17;;
47635;SDS011;33364;50.766;15.338;2024-03-02T05:17:27;46.97;;;25.85;;
47635;SDS011;33364;50.766;15.338;2024-03-02T05:19:53;48.35;;;26.65;;
47635;SDS011;33364;50.766;15.338;2024-03-02T05:22:18;42.65;;;25.67;;
47635;SDS011;33364;50.766;15.338;2024-03-02T05:24:44;46.20;;;25.90;;
47635;SDS011;33364;50.766;15.338;2024-03-02T05:27:09;46.20;;;27.73;;
47635;SDS011;33364;50.766;15.338;2024-03-02T05:29:35;47.53;;;25.70;;
47635;SDS011;33364;50.766;15.338;2024-03-02T05:32:01;44.70;;;26.30;;
47635;SDS011;33364;50.766;15.338;2024-03-02T05:34:27;44.20;;;26.92;;
47635;SDS011;33364;50.766;15.338;2024-03-02T05:36:52;42.38;;;25.35;;
47635;SDS011;33364;50.766;15.338;2024-03-02T05:39:18;48.40;;;26.02;;
47635;SDS011;33364;50.766;15.338;2024-03-02T05:41:44;47.13;;;26.60;;
47635;SDS011;33364;50.766;15.338;2024-03-02T05:44:10;42.92;;;25.35;;
47635;SDS011;33364;50.766;15.338;2024-03-02T05:46:35;43.38;;;25.42;;
47635;SDS011;33364;50.766;15.338;2024-03-02T05:49:01;46.17;;;26.48;;
47635;SDS011;33364;50.766;15.338;2024-03-02T05:51:27;43.78;;;25.17;;
47635;SDS011;33364;50.766;15.338;2024-03-02T05:53:53;43.65;;;26.05;;
47635;SDS011;33364;50.766;15.338;2024-03-02T05:56:18;46.17;;;26.23;;
47635;SDS011;33364;50.766;15.338;2024-03-02T05:58:44;43.17;;;25.00;;
47635;SDS011;33364;50.766;15.338;2024-03-02T06:01:28;45.65;;;26.58;;
47635;SDS011;33364;50.766;15.338;2024-03-02T06:03:58;43.45;;;26.48;;
47635;SDS011;33364;50.766;15.338;2024-03-02T06:06:24;45.65;;;26.42;;
47635;SDS011;33364;50.766;15.338;2024-03-02T06:08:50;43.08;;;24.95;;
47635;SDS011;33364;50.766;15.338;2024-03-02T06:11:16;45.90;;;24.90;;
47635;SDS011;33364;50.766;15.338;2024-03-02T06:13:42;44.13;;;24.70;;
47635;SDS011;33364;50.766;15.338;2024-03-02T06:16:07;46.22;;;25.77;;
47635;SDS011;33364;50.766;15.338;2024-03-02T06:18:34;41.53;;;24.77;;
47635;SDS011;33364;50.766;15.338;2024-03-02T06:20:59;44.28;;;24.92;;
47635;SDS011;33364;50.766;15.338;2024-03-02T06:23:27;42.63;;;24.85;;
47635;SDS011;33364;50.766;15.338;2024-03-02T06:25:52;50.17;;;26.23;;
47635;SDS011;33364;50.766;15.338;2024-03-02T06:28:18;46.83;;;27.58;;
47635;SDS011;33364;50.766;15.338;2024-03-02T06:30:44;53.05;;;28.30;;
47635;SDS011;33364;50.766;15.338;2024-03-02T06:33:10;48.47;;;28.23;;
47635;SDS011;33364;50.766;15.338;2024-03-02T06:35:36;43.65;;;25.42;;
47635;SDS011;33364;50.766;15.338;2024-03-02T06:38:02;41.40;;;25.60;;
47635;SDS011;33364;50.766;15.338;2024-03-02T06:40:28;50.55;;;27.35;;
47635;SDS011;33364;50.766;15.338;2024-03-02T06:42:54;41.35;;;22.23;;
47635;SDS011;33364;50.766;15.338;2024-03-02T06:45:19;46.30;;;26.33;;
47635;SDS011;33364;50.766;15.338;2024-03-02T06:47:45;51.45;;;27.90;;
47635;SDS011;33364;50.766;15.338;2024-03-02T06:50:11;48.33;;;27.73;;
47635;SDS011;33364;50.766;15.338;2024-03-02T06:52:38;50.72;;;27.70;;
47635;SDS011;33364;50.766;15.338;2024-03-02T06:55:04;45.30;;;27.65;;
47635;SDS011;33364;50.766;15.338;2024-03-02T06:57:30;51.30;;;29.65;;
47635;SDS011;33364;50.766;15.338;2024-03-02T06:59:56;52.15;;;29.23;;
47635;SDS011;33364;50.766;15.338;2024-03-02T07:02:24;54.67;;;28.88;;
47635;SDS011;33364;50.766;15.338;2024-03-02T07:04:52;50.88;;;29.30;;
47635;SDS011;33364;50.766;15.338;2024-03-02T07:07:19;50.78;;;29.45;;
47635;SDS011;33364;50.766;15.338;2024-03-02T07:09:44;48.53;;;28.70;;
47635;SDS011;33364;50.766;15.338;2024-03-02T07:12:10;53.95;;;29.98;;
47635;SDS011;33364;50.766;15.338;2024-03-02T07:14:36;51.80;;;30.08;;
47635;SDS011;33364;50.766;15.338;2024-03-02T07:17:20;55.25;;;30.35;;
47635;SDS011;33364;50.766;15.338;2024-03-02T07:19:46;55.30;;;31.10;;
47635;SDS011;33364;50.766;15.338;2024-03-02T07:22:13;59.60;;;31.48;;
47635;SDS011;33364;50.766;15.338;2024-03-02T07:24:39;54.00;;;30.58;;
47635;SDS011;33364;50.766;15.338;2024-03-02T07:27:06;60.75;;;30.73;;
47635;SDS011;33364;50.766;15.338;2024-03-02T07:29:32;57.47;;;32.83;;
47635;SDS011;33364;50.766;15.338;2024-03-02T07:31:58;57.28;;;32.03;;
47635;SDS011;33364;50.766;15.338;2024-03-02T07:34:24;57.85;;;32.75;;
47635;SDS011;33364;50.766;15.338;2024-03-02T07:36:50;60.60;;;33.75;;
47635;SDS011;33364;50.766;15.338;2024-03-02T07:39:16;59.42;;;32.63;;
47635;SDS011;33364;50.766;15.338;2024-03-02T07:41:42;60.20;;;33.40;;
47635;SDS011;33364;50.766;15.338;2024-03-02T07:44:08;56.88;;;32.72;;
47635;SDS011;33364;50.766;15.338;2024-03-02T07:46:34;58.60;;;31.88;;
47635;SDS011;33364;50.766;15.338;2024-03-02T07:48:59;57.42;;;30.88;;
47635;SDS011;33364;50.766;15.338;2024-03-02T07:51:25;57.30;;;32.72;;
47635;SDS011;33364;50.766;15.338;2024-03-02T07:53:51;57.53;;;32.20;;
47635;SDS011;33364;50.766;15.338;2024-03-02T07:56:17;60.83;;;31.63;;
47635;SDS011;33364;50.766;15.338;2024-03-02T07:58:47;60.88;;;32.63;;
47635;SDS011;33364;50.766;15.338;2024-03-02T08:01:14;55.30;;;31.65;;
47635;SDS011;33364;50.766;15.338;2024-03-02T08:03:40;58.47;;;32.92;;
47635;SDS011;33364;50.766;15.338;2024-03-02T08:06:06;56.90;;;31.17;;
47635;SDS011;33364;50.766;15.338;2024-03-02T08:08:32;52.95;;;29.80;;
47635;SDS011;33364;50.766;15.338;2024-03-02T08:10:58;51.47;;;28.73;;
47635;SDS011;33364;50.766;15.338;2024-03-02T08:13:23;48.45;;;28.33;;
47635;SDS011;33364;50.766;15.338;2024-03-02T08:15:49;51.53;;;28.90;;
47635;SDS011;33364;50.766;15.338;2024-03-02T08:18:15;53.30;;;30.33;;
47635;SDS011;33364;50.766;15.338;2024-03-02T08:20:41;52.78;;;28.88;;
47635;SDS011;33364;50.766;15.338;2024-03-02T08:23:06;52.33;;;29.05;;
47635;SDS011;33364;50.766;15.338;2024-03-02T08:25:33;54.33;;;27.92;;
47635;SDS011;33364;50.766;15.338;2024-03-02T08:27:59;48.20;;;28.52;;
47635;SDS011;33364;50.766;15.338;2024-03-02T08:30:25;54.05;;;29.38;;
47635;SDS011;33364;50.766;15.338;2024-03-02T08:32:50;50.65;;;28.63;;
47635;SDS011;33364;50.766;15.338;2024-03-02T08:35:16;46.63;;;26.73;;
47635;SDS011;33364;50.766;15.338;2024-03-02T08:37:42;50.85;;;28.13;;
47635;SDS011;33364;50.766;15.338;2024-03-02T08:40:09;47.78;;;27.45;;
47635;SDS011;33364;50.766;15.338;2024-03-02T08:42:35;48.80;;;28.35;;
47635;SDS011;33364;50.766;15.338;2024-03-02T08:45:01;50.83;;;27.80;;
47635;SDS011;33364;50.766;15.338;2024-03-02T08:47:27;46.08;;;27.92;;
47635;SDS011;33364;50.766;15.338;2024-03-02T08:49:53;49.17;;;27.98;;
47635;SDS011;33364;50.766;15.338;2024-03-02T08:52:19;55.90;;;31.27;;
47635;SDS011;33364;50.766;15.338;2024-03-02T08:54:45;47.30;;;26.55;;
47635;SDS011;33364;50.766;15.338;2024-03-02T08:57:10;49.47;;;27.73;;
47635;SDS011;33364;50.766;15.338;2024-03-02T08:59:36;44.17;;;25.50;;
47635;SDS011;33364;50.766;15.338;2024-03-02T09:02:02;45.97;;;26.20;;
47635;SDS011;33364;50.766;15.338;2024-03-02T09:04:28;46.08;;;26.80;;
47635;SDS011;33364;50.766;15.338;2024-03-02T09:06:54;49.60;;;25.73;;
47635;SDS011;33364;50.766;15.338;2024-03-02T09:09:20;45.13;;;25.70;;
47635;SDS011;33364;50.766;15.338;2024-03-02T09:11:46;43.55;;;25.65;;
47635;SDS011;33364;50.766;15.338;2024-03-02T09:14:12;43.20;;;25.33;;
47635;SDS011;33364;50.766;15.338;2024-03-02T09:16:40;43.90;;;24.63;;
47635;SDS011;33364;50.766;15.338;2024-03-02T09:19:05;45.75;;;27.20;;
47635;SDS011;33364;50.766;15.338;2024-03-02T09:21:31;48.08;;;26.30;;
47635;SDS011;33364;50.766;15.338;2024-03-02T09:23:57;46.28;;;26.52;;
47635;SDS011;33364;50.766;15.338;2024-03-02T09:26:23;48.90;;;26.15;;
47635;SDS011;33364;50.766;15.338;2024-03-02T09:28:50;44.58;;;24.27;;
47635;SDS011;33364;50.766;15.338;2024-03-02T09:31:16;60.10;;;38.33;;
47635;SDS011;33364;50.766;15.338;2024-03-02T09:33:42;47.53;;;26.65;;
47635;SDS011;33364;50.766;15.338;2024-03-02T09:36:22;53.05;;;27.38;;
47635;SDS011;33364;50.766;15.338;2024-03-02T09:38:48;52.17;;;29.58;;
47635;SDS011;33364;50.766;15.338;2024-03-02T09:41:14;42.50;;;25.75;;
47635;SDS011;33364;50.766;15.338;2024-03-02T09:43:40;44.97;;;23.90;;
47635;SDS011;33364;50.766;15.338;2024-03-02T09:46:08;46.10;;;27.67;;
47635;SDS011;33364;50.766;15.338;2024-03-02T09:48:35;41.85;;;24.50;;
47635;SDS011;33364;50.766;15.338;2024-03-02T09:51:01;41.63;;;23.58;;
47635;SDS011;33364;50.766;15.338;2024-03-02T09:53:29;43.33;;;25.58;;
47635;SDS011;33364;50.766;15.338;2024-03-02T09:55:57;55.97;;;35.40;;
47635;SDS011;33364;50.766;15.338;2024-03-02T09:58:24;42.97;;;26.20;;
47635;SDS011;33364;50.766;15.338;2024-03-02T10:00:49;48.58;;;27.98;;
47635;SDS011;33364;50.766;15.338;2024-03-02T10:03:15;39.33;;;24.20;;
47635;SDS011;33364;50.766;15.338;2024-03-02T10:05:43;39.70;;;23.05;;
47635;SDS011;33364;50.766;15.338;2024-03-02T10:08:09;44.88;;;25.25;;
47635;SDS011;33364;50.766;15.338;2024-03-02T10:10:35;44.95;;;24.83;;
47635;SDS011;33364;50.766;15.338;2024-03-02T10:13:09;46.47;;;25.73;;
47635;SDS011;33364;50.766;15.338;2024-03-02T10:15:39;43.25;;;25.98;;
47635;SDS011;33364;50.766;15.338;2024-03-02T10:18:09;41.13;;;23.63;;
47635;SDS011;33364;50.766;15.338;2024-03-02T10:20:37;44.67;;;26.85;;
47635;SDS011;33364;50.766;15.338;2024-03-02T10:23:10;44.72;;;25.55;;
47635;SDS011;33364;50.766;15.338;2024-03-02T10:25:37;43.58;;;25.33;;
47635;SDS011;33364;50.766;15.338;2024-03-02T10:28:03;40.45;;;24.40;;
47635;SDS011;33364;50.766;15.338;2024-03-02T10:30:31;43.85;;;24.75;;
47635;SDS011;33364;50.766;15.338;2024-03-02T10:33:03;38.63;;;24.42;;
47635;SDS011;33364;50.766;15.338;2024-03-02T10:35:30;48.70;;;28.15;;
47635;SDS011;33364;50.766;15.338;2024-03-02T10:38:00;41.50;;;26.08;;
47635;SDS011;33364;50.766;15.338;2024-03-02T10:40:26;41.42;;;25.65;;
47635;SDS011;33364;50.766;15.338;2024-03-02T10:42:52;44.33;;;25.42;;
47635;SDS011;33364;50.766;15.338;2024-03-02T10:45:19;60.33;;;31.85;;
47635;SDS011;33364;50.766;15.338;2024-03-02T10:47:49;53.70;;;28.27;;
47635;SDS011;33364;50.766;15.338;2024-03-02T10:50:15;46.30;;;26.80;;
47635;SDS011;33364;50.766;15.338;2024-03-02T10:52:41;47.10;;;25.13;;
47635;SDS011;33364;50.766;15.338;2024-03-02T10:55:08;51.50;;;28.80;;
47635;SDS011;33364;50.766;15.338;2024-03-02T10:57:51;52.08;;;30.45;;
47635;SDS011;33364;50.766;15.338;2024-03-02T11:00:23;42.33;;;25.85;;
47635;SDS011;33364;50.766;15.338;2024-03-02T11:03:05;42.13;;;26.02;;
47635;SDS011;33364;50.766;15.338;2024-03-02T11:05:31;43.80;;;26.33;;
47635;SDS011;33364;50.766;15.338;2024-03-02T11:08:08;38.20;;;23.90;;
47635;SDS011;33364;50.766;15.338;2024-03-02T11:10:40;42.35;;;24.52;;
47635;SDS011;33364;50.766;15.338;2024-03-02T11:13:09;43.05;;;25.30;;
47635;SDS011;33364;50.766;15.338;2024-03-02T11:15:37;48.97;;;30.77;;
47635;SDS011;33364;50.766;15.338;2024-03-02T11:18:06;50.08;;;27.60;;
47635;SDS011;33364;50.766;15.338;2024-03-02T11:20:35;49.17;;;27.95;;
47635;SDS011;33364;50.766;15.338;2024-03-02T11:23:04;49.47;;;27.80;;
47635;SDS011;33364;50.766;15.338;2024-03-02T11:25:31;49.70;;;27.70;;
47635;SDS011;33364;50.766;15.338;2024-03-02T11:28:05;45.42;;;25.42;;
47635;SDS011;33364;50.766;15.338;2024-03-02T11:32:58;42.55;;;24.58;;
47635;SDS011;33364;50.766;15.338;2024-03-02T11:35:33;44.92;;;26.10;;
47635;SDS011;33364;50.766;15.338;2024-03-02T11:38:03;43.88;;;23.23;;
47635;SDS011;33364;50.766;15.338;2024-03-02T11:40:29;40.55;;;24.25;;
47635;SDS011;33364;50.766;15.338;2024-03-02T11:42:56;47.55;;;26.40;;
47635;SDS011;33364;50.766;15.338;2024-03-02T11:45:24;43.60;;;25.48;;
47635;SDS011;33364;50.766;15.338;2024-03-02T11:47:52;44.78;;;25.23;;
47635;SDS011;33364;50.766;15.338;2024-03-02T11:50:35;46.22;;;27.15;;
47635;SDS011;33364;50.766;15.338;2024-03-02T11:53:06;42.78;;;24.13;;
47635;SDS011;33364;50.766;15.338;2024-03-02T11:55:38;40.00;;;24.70;;
47635;SDS011;33364;50.766;15.338;2024-03-02T11:58:06;41.22;;;24.60;;
47635;SDS011;33364;50.766;15.338;2024-03-02T12:00:32;42.25;;;24.17;;
47635;SDS011;33364;50.766;15.338;2024-03-02T12:02:59;43.33;;;23.73;;
47635;SDS011;33364;50.766;15.338;2024-03-02T12:05:27;43.90;;;24.00;;
47635;SDS011;33364;50.766;15.338;2024-03-02T12:08:00;34.92;;;21.52;;
47635;SDS011;33364;50.766;15.338;2024-03-02T12:10:27;42.88;;;24.55;;
47635;SDS011;33364;50.766;15.338;2024-03-02T12:13:00;39.25;;;24.35;;
47635;SDS011;33364;50.766;15.338;2024-03-02T12:15:27;41.08;;;23.30;;
47635;SDS011;33364;50.766;15.338;2024-03-02T12:17:58;36.58;;;23.02;;
47635;SDS011;33364;50.766;15.338;2024-03-02T12:20:25;45.30;;;24.17;;
47635;SDS011;33364;50.766;15.338;2024-03-02T12:22:53;46.30;;;26.27;;
47635;SDS011;33364;50.766;15.338;2024-03-02T12:25:20;41.78;;;24.58;;
47635;SDS011;33364;50.766;15.338;2024-03-02T12:27:51;41.33;;;25.52;;
47635;SDS011;33364;50.766;15.338;2024-03-02T12:30:18;44.47;;;25.13;;
47635;SDS011;33364;50.766;15.338;2024-03-02T12:32:45;37.63;;;23.00;;
47635;SDS011;33364;50.766;15.338;2024-03-02T12:35:11;35.05;;;22.05;;
47635;SDS011;33364;50.766;15.338;2024-03-02T12:37:47;36.50;;;23.95;;
47635;SDS011;33364;50.766;15.338;2024-03-02T12:40:14;42.25;;;25.58;;
47635;SDS011;33364;50.766;15.338;2024-03-02T12:42:44;41.40;;;24.10;;
47635;SDS011;33364;50.766;15.338;2024-03-02T12:45:12;38.25;;;22.23;;
47635;SDS011;33364;50.766;15.338;2024-03-02T12:47:40;36.95;;;21.65;;
47635;SDS011;33364;50.766;15.338;2024-03-02T12:50:07;36.95;;;22.58;;
47635;SDS011;33364;50.766;15.338;2024-03-02T12:52:33;38.00;;;23.45;;
47635;SDS011;33364;50.766;15.338;2024-03-02T12:54:59;34.80;;;22.40;;
47635;SDS011;33364;50.766;15.338;2024-03-02T12:57:27;39.42;;;24.08;;
47635;SDS011;33364;50.766;15.338;2024-03-02T12:59:58;38.78;;;25.42;;
47635;SDS011;33364;50.766;15.338;2024-03-02T13:02:30;37.50;;;22.98;;
47635;SDS011;33364;50.766;15.338;2024-03-02T13:04:57;39.85;;;24.45;;
47635;SDS011;33364;50.766;15.338;2024-03-02T13:07:24;39.83;;;25.33;;
47635;SDS011;33364;50.766;15.338;2024-03-02T13:09:51;41.40;;;26.52;;
47635;SDS011;33364;50.766;15.338;2024-03-02T13:12:17;42.75;;;24.73;;
47635;SDS011;33364;50.766;15.338;2024-03-02T13:14:47;41.08;;;23.92;;
47635;SDS011;33364;50.766;15.338;2024-03-02T13:17:14;36.22;;;25.45;;
47635;SDS011;33364;50.766;15.338;2024-03-02T13:19:52;37.58;;;24.58;;
47635;SDS011;33364;50.766;15.338;2024-03-02T13:22:19;38.67;;;23.98;;
47635;SDS011;33364;50.766;15.338;2024-03-02T13:24:45;37.33;;;25.02;;
47635;SDS011;33364;50.766;15.338;2024-03-02T13:27:11;35.75;;;23.25;;
47635;SDS011;33364;50.766;15.338;2024-03-02T13:29:36;37.83;;;23.02;;
47635;SDS011;33364;50.766;15.338;2024-03-02T13:32:03;42.35;;;25.42;;
47635;SDS011;33364;50.766;15.338;2024-03-02T13:34:29;39.63;;;24.60;;
47635;SDS011;33364;50.766;15.338;2024-03-02T13:36:55;39.58;;;25.50;;
47635;SDS011;33364;50.766;15.338;2024-03-02T13:39:20;39.30;;;23.23;;
47635;SDS011;33364;50.766;15.338;2024-03-02T13:41:46;43.15;;;25.65;;
47635;SDS011;33364;50.766;15.338;2024-03-02T13:44:20;43.58;;;26.17;;
47635;SDS011;33364;50.766;15.338;2024-03-02T13:46:47;36.50;;;23.90;;
47635;SDS011;33364;50.766;15.338;2024-03-02T13:49:13;39.03;;;24.45;;
47635;SDS011;33364;50.766;15.338;2024-03-02T13:51:39;37.45;;;24.48;;
47635;SDS011;33364;50.766;15.338;2024-03-02T13:54:05;41.17;;;25.38;;
47635;SDS011;33364;50.766;15.338;2024-03-02T13:56:31;37.78;;;23.52;;
47635;SDS011;33364;50.766;15.338;2024-03-02T13:58:58;39.13;;;23.00;;
47635;SDS011;33364;50.766;15.338;2024-03-02T14:01:24;35.58;;;23.63;;
47635;SDS011;33364;50.766;15.338;2024-03-02T14:03:50;43.55;;;26.13;;
47635;SDS011;33364;50.766;15.338;2024-03-02T14:06:16;36.22;;;22.05;;
47635;SDS011;33364;50.766;15.338;2024-03-02T14:08:42;36.92;;;21.80;;
47635;SDS011;33364;50.766;15.338;2024-03-02T14:11:10;41.08;;;25.17;;
47635;SDS011;33364;50.766;15.338;2024-03-02T14:13:40;45.17;;;28.42;;
47635;SDS011;33364;50.766;15.338;2024-03-02T14:16:07;60.38;;;35.53;;